createdAt,value
2019-05-22T00:00:47.736Z,96.84
2019-05-22T00:01:47.722Z,96.84
2019-05-22T00:02:47.808Z,96.94
2019-05-22T00:03:47.709Z,96.84
2019-05-22T00:04:47.703Z,97.40
2019-05-22T00:05:47.678Z,96.80
2019-05-22T00:06:47.671Z,97.00
2019-05-22T00:07:47.688Z,95.98
2019-05-22T00:08:47.646Z,95.89
2019-05-22T00:09:47.634Z,94.92
2019-05-22T00:10:47.624Z,95.32
2019-05-22T00:11:47.614Z,95.02
2019-05-22T00:12:47.643Z,95.02
2019-05-22T00:13:47.590Z,95.32
2019-05-22T00:14:47.586Z,95.63
2019-05-22T00:15:47.570Z,95.93
2019-05-22T00:16:47.553Z,95.73
2019-05-22T00:17:47.544Z,96.03
2019-05-22T00:18:47.548Z,95.93
2019-05-22T00:19:47.532Z,95.63
2019-05-22T00:20:47.508Z,96.13
2019-05-22T00:21:47.509Z,96.13
2019-05-22T00:22:47.491Z,95.73
2019-05-22T00:23:47.492Z,96.13
2019-05-22T00:24:47.467Z,96.13
2019-05-22T00:25:47.456Z,95.53
2019-05-22T00:26:47.452Z,95.93
2019-05-22T00:27:47.432Z,95.63
2019-05-22T00:28:47.446Z,95.22
2019-05-22T00:29:47.422Z,95.22
2019-05-22T00:30:47.404Z,95.32
2019-05-22T00:31:47.389Z,94.72
2019-05-22T00:32:47.387Z,94.66
2019-05-22T00:33:47.384Z,94.66
2019-05-22T00:34:47.348Z,95.17
2019-05-22T00:35:47.358Z,95.98
2019-05-22T00:36:47.335Z,95.78
2019-05-22T00:37:47.317Z,96.08
2019-05-22T00:38:47.324Z,95.27
2019-05-22T00:39:47.297Z,95.37
2019-05-22T00:40:47.283Z,95.57
2019-05-22T00:41:47.282Z,95.47
2019-05-22T00:43:02.914Z,95.37
2019-05-22T00:43:48.276Z,95.27
2019-05-22T00:44:47.247Z,94.96
2019-05-22T00:45:47.233Z,96.08
2019-05-22T00:46:47.224Z,95.87
2019-05-22T00:47:47.211Z,95.17
2019-05-22T00:48:47.226Z,95.17
2019-05-22T00:49:47.191Z,96.22
2019-05-22T00:50:47.182Z,94.76
2019-05-22T00:51:47.165Z,95.01
2019-05-22T00:52:47.155Z,95.51
2019-05-22T00:53:47.155Z,94.81
2019-05-22T00:54:47.129Z,93.90
2019-05-22T00:55:47.122Z,94.20
2019-05-22T00:56:47.108Z,93.49
2019-05-22T00:57:47.104Z,92.99
2019-05-22T00:58:47.116Z,92.32
2019-05-22T00:59:47.143Z,93.03
2019-05-22T01:00:47.069Z,93.33
2019-05-22T01:01:47.058Z,93.74
2019-05-22T01:02:47.048Z,93.94
2019-05-22T01:03:47.959Z,93.94
2019-05-22T01:04:47.038Z,93.94
2019-05-22T01:05:47.005Z,93.54
2019-05-22T01:06:47.003Z,93.94
2019-05-22T01:07:46.994Z,93.84
2019-05-22T01:08:46.982Z,93.94
2019-05-22T01:09:46.978Z,93.74
2019-05-22T01:10:46.956Z,93.33
2019-05-22T01:11:46.946Z,93.13
2019-05-22T01:12:46.957Z,93.78
2019-05-22T01:13:46.924Z,93.38
2019-05-22T01:14:46.986Z,93.48
2019-05-22T01:15:46.895Z,93.38
2019-05-22T01:16:46.884Z,93.68
2019-05-22T01:17:46.878Z,93.58
2019-05-22T01:18:46.864Z,93.68
2019-05-22T01:19:46.896Z,93.78
2019-05-22T01:20:46.840Z,93.78
2019-05-22T01:21:46.834Z,93.78
2019-05-22T01:22:47.573Z,93.99
2019-05-22T01:23:46.809Z,94.34
2019-05-22T01:24:46.818Z,94.39
2019-05-22T01:25:46.785Z,94.43
2019-05-22T01:26:46.774Z,95.25
2019-05-22T01:27:46.762Z,95.14
2019-05-22T01:28:46.755Z,94.94
2019-05-22T01:29:46.775Z,95.65
2019-05-22T01:30:46.741Z,95.40
2019-05-22T01:31:46.724Z,95.50
2019-05-22T01:32:46.732Z,95.25
2019-05-22T01:33:46.698Z,95.25
2019-05-22T01:34:46.686Z,95.45
2019-05-22T01:35:46.690Z,95.75
2019-05-22T01:36:46.662Z,94.84
2019-05-22T01:37:46.652Z,95.35
2019-05-22T01:38:46.640Z,95.45
2019-05-22T01:39:46.626Z,95.25
2019-05-22T01:40:46.633Z,95.35
2019-05-22T01:41:46.614Z,95.25
2019-05-22T01:42:46.597Z,95.14
2019-05-22T01:43:46.584Z,95.75
2019-05-22T01:44:59.731Z,96.06
2019-05-22T01:45:47.578Z,96.15
2019-05-22T01:46:46.549Z,96.36
2019-05-22T01:47:46.542Z,96.22
2019-05-22T01:48:46.532Z,95.50
2019-05-22T01:49:46.518Z,95.10
2019-05-22T01:50:46.529Z,94.29
2019-05-22T01:51:46.499Z,93.88
2019-05-22T01:52:46.509Z,93.68
2019-05-22T01:53:46.483Z,93.93
2019-05-22T01:54:46.465Z,94.13
2019-05-22T01:55:46.464Z,94.13
2019-05-22T01:56:46.438Z,94.34
2019-05-22T01:57:46.430Z,94.43
2019-05-22T01:58:46.424Z,94.64
2019-05-22T01:59:46.406Z,94.94
2019-05-22T02:00:46.429Z,95.04
2019-05-22T02:01:46.378Z,94.84
2019-05-22T02:02:46.376Z,95.59
2019-05-22T02:03:46.366Z,94.89
2019-05-22T02:04:46.352Z,95.19
2019-05-22T02:05:46.368Z,94.98
2019-05-22T02:06:46.330Z,95.55
2019-05-22T02:07:46.316Z,95.35
2019-05-22T02:08:46.312Z,95.09
2019-05-22T02:09:46.312Z,95.14
2019-05-22T02:10:46.295Z,95.09
2019-05-22T02:11:46.295Z,94.68
2019-05-22T02:12:46.258Z,94.54
2019-05-22T02:13:46.252Z,94.84
2019-05-22T02:14:46.240Z,94.94
2019-05-22T02:15:46.232Z,95.35
2019-05-22T02:16:55.996Z,95.14
2019-05-22T02:17:47.208Z,94.94
2019-05-22T02:18:46.237Z,94.84
2019-05-22T02:19:46.200Z,94.84
2019-05-22T02:20:46.171Z,94.94
2019-05-22T02:21:46.180Z,94.84
2019-05-22T02:22:46.150Z,94.94
2019-05-22T02:23:46.139Z,94.54
2019-05-22T02:24:46.128Z,94.23
2019-05-22T02:25:46.121Z,94.54
2019-05-22T02:26:46.125Z,94.54
2019-05-22T02:27:46.096Z,94.64
2019-05-22T02:28:46.078Z,95.25
2019-05-22T02:29:46.069Z,94.43
2019-05-22T02:30:46.064Z,95.04
2019-05-22T02:31:46.068Z,94.94
2019-05-22T02:32:46.050Z,94.94
2019-05-22T02:33:46.035Z,94.94
2019-05-22T02:34:46.014Z,95.19
2019-05-22T02:35:46.009Z,95.14
2019-05-22T02:36:46.021Z,95.25
2019-05-22T02:37:45.985Z,94.13
2019-05-22T02:38:45.973Z,94.34
2019-05-22T02:39:45.962Z,93.93
2019-05-22T02:40:45.950Z,93.62
2019-05-22T02:41:45.969Z,93.57
2019-05-22T02:42:45.934Z,94.07
2019-05-22T02:43:45.916Z,94.07
2019-05-22T02:44:45.906Z,94.07
2019-05-22T02:45:45.914Z,94.18
2019-05-22T02:46:45.883Z,94.68
2019-05-22T02:47:45.889Z,94.27
2019-05-22T02:48:45.869Z,94.07
2019-05-22T02:49:45.872Z,94.18
2019-05-22T02:50:45.874Z,94.18
2019-05-22T02:51:45.827Z,94.58
2019-05-22T02:52:45.829Z,94.18
2019-05-22T02:53:45.799Z,94.12
2019-05-22T02:54:45.809Z,94.53
2019-05-22T02:55:45.781Z,94.42
2019-05-22T02:56:45.778Z,95.29
2019-05-22T02:57:45.783Z,95.34
2019-05-22T02:58:45.743Z,95.13
2019-05-22T02:59:45.738Z,95.23
2019-05-22T03:00:45.723Z,95.03
2019-05-22T03:01:45.721Z,95.23
2019-05-22T03:02:45.725Z,95.13
2019-05-22T03:03:45.705Z,95.13
2019-05-22T03:04:45.686Z,95.13
2019-05-22T03:05:45.667Z,94.93
2019-05-22T03:06:45.655Z,95.43
2019-05-22T03:07:45.763Z,95.48
2019-05-22T03:08:45.635Z,95.43
2019-05-22T03:09:46.719Z,95.54
2019-05-22T03:10:45.611Z,95.64
2019-05-22T03:11:45.605Z,96.19
2019-05-22T03:12:45.589Z,95.99
2019-05-22T03:13:45.610Z,95.68
2019-05-22T03:14:45.579Z,96.19
2019-05-22T03:15:45.557Z,96.39
2019-05-22T03:16:45.550Z,96.90
2019-05-22T03:17:45.561Z,97.71
2019-05-22T03:18:45.551Z,97.20
2019-05-22T03:19:45.537Z,97.31
2019-05-22T03:20:45.510Z,96.39
2019-05-22T03:21:45.492Z,96.70
2019-05-22T03:22:45.483Z,97.20
2019-05-22T03:23:45.507Z,96.60
2019-05-22T03:24:45.459Z,96.50
2019-05-22T03:25:45.498Z,96.39
2019-05-22T03:26:45.431Z,96.30
2019-05-22T03:27:45.454Z,96.39
2019-05-22T03:28:45.438Z,96.75
2019-05-22T03:29:45.408Z,96.50
2019-05-22T03:30:45.402Z,96.84
2019-05-22T03:31:45.385Z,96.39
2019-05-22T03:32:45.369Z,97.11
2019-05-22T03:33:45.369Z,96.44
2019-05-22T03:34:45.378Z,96.50
2019-05-22T03:35:45.339Z,96.80
2019-05-22T03:36:45.331Z,96.44
2019-05-22T03:37:45.337Z,96.84
2019-05-22T03:38:45.358Z,97.45
2019-05-22T03:39:45.295Z,97.51
2019-05-22T03:40:45.964Z,96.54
2019-05-22T03:41:45.268Z,96.34
2019-05-22T03:42:45.268Z,96.44
2019-05-22T03:43:45.247Z,96.84
2019-05-22T03:44:45.250Z,96.60
2019-05-22T03:45:45.231Z,96.64
2019-05-22T03:46:45.219Z,97.11
2019-05-22T03:47:45.212Z,96.34
2019-05-22T03:48:45.189Z,96.44
2019-05-22T03:49:45.195Z,96.64
2019-05-22T03:50:45.172Z,96.09
2019-05-22T03:51:45.155Z,96.03
2019-05-22T03:52:45.140Z,96.75
2019-05-22T03:53:45.142Z,96.54
2019-05-22T03:54:45.144Z,95.99
2019-05-22T03:55:45.112Z,96.19
2019-05-22T03:56:45.107Z,96.09
2019-05-22T03:57:45.094Z,96.30
2019-05-22T03:58:45.077Z,96.39
2019-05-22T03:59:45.095Z,95.89
2019-05-22T04:00:45.069Z,96.50
2019-05-22T04:01:45.090Z,96.50
2019-05-22T04:02:45.078Z,96.30
2019-05-22T04:03:45.025Z,96.50
2019-05-22T04:04:45.061Z,96.54
2019-05-22T04:05:45.005Z,96.19
2019-05-22T04:06:44.987Z,96.03
2019-05-22T04:07:44.973Z,96.03
2019-05-22T04:08:44.965Z,96.03
2019-05-22T04:09:44.998Z,95.63
2019-05-22T04:10:44.950Z,95.22
2019-05-22T04:11:44.947Z,95.53
2019-05-22T04:12:44.923Z,95.42
2019-05-22T04:13:44.908Z,95.32
2019-05-22T04:14:44.902Z,95.63
2019-05-22T04:15:44.916Z,95.73
2019-05-22T04:16:44.877Z,95.73
2019-05-22T04:17:44.868Z,95.83
2019-05-22T04:18:44.854Z,95.73
2019-05-22T04:19:50.265Z,96.14
2019-05-22T04:20:45.851Z,96.23
2019-05-22T04:21:44.828Z,95.73
2019-05-22T04:22:44.816Z,95.02
2019-05-22T04:23:44.820Z,95.53
2019-05-22T04:24:44.791Z,95.32
2019-05-22T04:25:44.799Z,95.12
2019-05-22T04:26:44.761Z,96.23
2019-05-22T04:27:44.755Z,95.94
2019-05-22T04:28:44.751Z,95.53
2019-05-22T04:29:44.734Z,95.73
2019-05-22T04:30:44.739Z,96.03
2019-05-22T04:31:44.710Z,96.14
2019-05-22T04:32:44.703Z,95.73
2019-05-22T04:33:44.690Z,95.73
2019-05-22T04:34:44.678Z,95.73
2019-05-22T04:35:44.692Z,96.44
2019-05-22T04:36:44.654Z,95.94
2019-05-22T04:37:44.649Z,96.34
2019-05-22T04:38:44.629Z,96.59
2019-05-22T04:39:44.625Z,97.56
2019-05-22T04:40:44.627Z,96.48
2019-05-22T04:41:44.597Z,96.08
2019-05-22T04:42:44.590Z,96.89
2019-05-22T04:43:44.584Z,96.38
2019-05-22T04:44:44.565Z,95.57
2019-05-22T04:45:44.585Z,96.18
2019-05-22T04:46:44.544Z,95.82
2019-05-22T04:47:44.526Z,96.23
2019-05-22T04:48:45.962Z,96.43
2019-05-22T04:49:44.511Z,96.53
2019-05-22T04:50:44.517Z,96.43
2019-05-22T04:51:44.492Z,96.12
2019-05-22T04:52:44.480Z,95.72
2019-05-22T04:53:44.476Z,96.63
2019-05-22T04:54:44.454Z,96.43
2019-05-22T04:55:44.468Z,96.33
2019-05-22T04:56:44.432Z,96.12
2019-05-22T04:57:44.424Z,96.63
2019-05-22T04:58:44.411Z,96.12
2019-05-22T04:59:44.404Z,95.41
2019-05-22T05:00:44.404Z,96.58
2019-05-22T05:01:44.372Z,96.43
2019-05-22T05:02:44.369Z,96.12
2019-05-22T05:03:44.360Z,96.33
2019-05-22T05:04:44.344Z,96.43
2019-05-22T05:05:44.356Z,96.33
2019-05-22T05:06:44.327Z,95.72
2019-05-22T05:07:44.308Z,95.72
2019-05-22T05:08:44.298Z,96.12
2019-05-22T05:09:44.288Z,96.43
2019-05-22T05:10:44.294Z,96.47
2019-05-22T05:11:44.273Z,96.58
2019-05-22T05:12:44.258Z,97.29
2019-05-22T05:13:44.244Z,97.44
2019-05-22T05:14:44.234Z,97.44
2019-05-22T05:15:44.243Z,97.60
2019-05-22T05:16:44.208Z,96.78
2019-05-22T05:17:44.196Z,96.88
2019-05-22T05:18:44.199Z,97.39
2019-05-22T05:19:44.187Z,97.19
2019-05-22T05:20:44.182Z,97.60
2019-05-22T05:21:44.158Z,97.69
2019-05-22T05:22:44.145Z,96.27
2019-05-22T05:23:44.134Z,96.47
2019-05-22T05:24:44.122Z,96.78
2019-05-22T05:25:44.132Z,97.29
2019-05-22T05:26:44.121Z,98.00
2019-05-22T05:27:44.093Z,97.19
2019-05-22T05:28:44.075Z,97.29
2019-05-22T05:29:44.072Z,96.47
2019-05-22T05:30:44.076Z,96.68
2019-05-22T05:31:44.060Z,96.78
2019-05-22T05:32:44.030Z,97.19
2019-05-22T05:33:44.021Z,97.49
2019-05-22T05:34:45.447Z,97.39
2019-05-22T05:35:44.023Z,97.60
2019-05-22T05:36:44.004Z,97.89
2019-05-22T05:37:43.990Z,97.60
2019-05-22T05:38:43.964Z,97.39
2019-05-22T05:39:43.959Z,97.44
2019-05-22T05:40:43.937Z,96.68
2019-05-22T05:41:43.944Z,96.72
2019-05-22T05:42:43.930Z,96.72
2019-05-22T05:43:43.906Z,97.44
2019-05-22T05:44:43.898Z,96.72
2019-05-22T05:45:43.882Z,97.74
2019-05-22T05:46:43.902Z,97.74
2019-05-22T05:47:43.864Z,97.44
2019-05-22T05:48:43.857Z,97.28
2019-05-22T05:49:43.842Z,97.64
2019-05-22T05:50:43.859Z,97.17
2019-05-22T05:51:43.835Z,96.83
2019-05-22T05:52:43.811Z,97.07
2019-05-22T05:53:43.795Z,96.87
2019-05-22T05:54:43.792Z,97.69
2019-05-22T05:55:43.774Z,97.69
2019-05-22T05:56:43.780Z,97.48
2019-05-22T05:57:43.754Z,96.67
2019-05-22T05:58:43.795Z,97.69
2019-05-22T05:59:43.741Z,97.28
2019-05-22T06:00:44.686Z,97.69
2019-05-22T06:01:43.734Z,97.63
2019-05-22T06:02:56.267Z,97.78
2019-05-22T06:03:44.680Z,97.63
2019-05-22T06:04:43.670Z,98.19
2019-05-22T06:05:43.669Z,98.09
2019-05-22T06:06:43.685Z,98.09
2019-05-22T06:07:43.642Z,97.69
2019-05-22T06:08:43.630Z,97.99
2019-05-22T06:09:43.616Z,97.07
2019-05-22T06:10:43.608Z,98.09
2019-05-22T06:11:43.622Z,97.89
2019-05-22T06:12:43.588Z,99.21
2019-05-22T06:13:43.591Z,97.63
2019-05-22T06:14:43.566Z,97.32
2019-05-22T06:15:47.642Z,97.99
2019-05-22T06:16:43.564Z,97.83
2019-05-22T06:17:43.537Z,97.38
2019-05-22T06:18:43.514Z,97.83
2019-05-22T06:19:43.506Z,98.03
2019-05-22T06:20:43.497Z,97.83
2019-05-22T06:21:43.502Z,97.93
2019-05-22T06:22:43.482Z,98.14
2019-05-22T06:23:43.468Z,98.03
2019-05-22T06:24:43.452Z,99.36
2019-05-22T06:25:43.436Z,98.95
2019-05-22T06:26:43.448Z,99.31
2019-05-22T06:27:43.413Z,97.83
2019-05-22T06:28:43.409Z,96.51
2019-05-22T06:29:43.430Z,97.63
2019-05-22T06:30:43.380Z,96.30
2019-05-22T06:31:43.384Z,96.71
2019-05-22T06:32:43.374Z,96.41
2019-05-22T06:33:43.353Z,96.81
2019-05-22T06:34:43.349Z,97.02
2019-05-22T06:35:43.324Z,97.73
2019-05-22T06:36:43.338Z,97.53
2019-05-22T06:37:43.306Z,97.32
2019-05-22T06:38:43.300Z,97.42
2019-05-22T06:39:43.282Z,96.30
2019-05-22T06:40:43.280Z,96.61
2019-05-22T06:41:43.302Z,97.73
2019-05-22T06:42:43.268Z,98.03
2019-05-22T06:43:43.232Z,97.48
2019-05-22T06:44:43.232Z,96.71
2019-05-22T06:45:43.221Z,96.71
2019-05-22T06:46:43.213Z,97.53
2019-05-22T06:47:43.218Z,97.53
2019-05-22T06:48:43.182Z,97.63
2019-05-22T06:49:43.175Z,96.71
2019-05-22T06:50:43.161Z,96.92
2019-05-22T06:51:43.152Z,97.12
2019-05-22T06:52:43.157Z,97.22
2019-05-22T06:53:43.128Z,96.96
2019-05-22T06:54:43.117Z,97.02
2019-05-22T06:55:43.108Z,97.32
2019-05-22T06:56:43.094Z,96.92
2019-05-22T06:57:43.098Z,96.55
2019-05-22T06:58:43.125Z,96.55
2019-05-22T06:59:43.060Z,96.25
2019-05-22T07:00:43.046Z,96.66
2019-05-22T07:01:43.045Z,96.86
2019-05-22T07:02:43.046Z,97.88
2019-05-22T07:03:43.030Z,96.86
2019-05-22T07:04:43.009Z,96.96
2019-05-22T07:05:42.996Z,96.96
2019-05-22T07:06:43.016Z,96.45
2019-05-22T07:07:42.996Z,96.04
2019-05-22T07:08:42.971Z,96.35
2019-05-22T07:09:42.960Z,96.66
2019-05-22T07:10:42.935Z,96.45
2019-05-22T07:11:42.930Z,96.86
2019-05-22T07:12:42.933Z,96.20
2019-05-22T07:13:42.903Z,94.52
2019-05-22T07:14:42.904Z,94.72
2019-05-22T07:15:42.881Z,94.42
2019-05-22T07:16:42.870Z,94.82
2019-05-22T07:17:42.890Z,94.52
2019-05-22T07:18:42.846Z,94.68
2019-05-22T07:19:42.836Z,94.68
2019-05-22T07:20:42.830Z,94.07
2019-05-22T07:21:42.812Z,94.27
2019-05-22T07:22:42.847Z,94.27
2019-05-22T07:23:42.793Z,94.52
2019-05-22T07:24:42.790Z,94.78
2019-05-22T07:25:42.768Z,94.68
2019-05-22T07:26:42.766Z,94.57
2019-05-22T07:27:42.878Z,95.49
2019-05-22T07:28:42.734Z,94.17
2019-05-22T07:29:42.725Z,93.66
2019-05-22T07:30:42.717Z,93.86
2019-05-22T07:31:42.709Z,94.27
2019-05-22T07:32:42.712Z,93.55
2019-05-22T07:33:42.713Z,94.07
2019-05-22T07:34:42.683Z,93.55
2019-05-22T07:35:56.653Z,93.15
2019-05-22T07:36:43.652Z,93.25
2019-05-22T07:37:42.644Z,93.96
2019-05-22T07:38:42.657Z,93.25
2019-05-22T07:39:42.628Z,93.66
2019-05-22T07:40:42.606Z,93.86
2019-05-22T07:41:42.598Z,94.31
2019-05-22T07:42:42.576Z,93.86
2019-05-22T07:43:42.591Z,94.07
2019-05-22T07:44:42.561Z,94.07
2019-05-22T07:45:42.555Z,93.90
2019-05-22T07:46:42.531Z,93.66
2019-05-22T07:47:42.579Z,94.37
2019-05-22T07:48:42.530Z,93.45
2019-05-22T07:49:42.508Z,93.35
2019-05-22T07:50:42.492Z,92.74
2019-05-22T07:51:54.127Z,93.15
2019-05-22T07:52:43.470Z,92.64
2019-05-22T07:53:42.478Z,92.54
2019-05-22T07:54:42.447Z,93.25
2019-05-22T07:55:42.444Z,93.25
2019-05-22T07:56:42.421Z,92.54
2019-05-22T07:57:42.412Z,92.84
2019-05-22T07:58:42.417Z,92.03
2019-05-22T07:59:42.386Z,92.54
2019-05-22T08:00:42.391Z,93.09
2019-05-22T08:01:42.364Z,93.09
2019-05-22T08:02:42.358Z,93.15
2019-05-22T08:03:42.366Z,92.03
2019-05-22T08:04:42.359Z,93.05
2019-05-22T08:05:42.319Z,92.13
2019-05-22T08:06:42.314Z,92.23
2019-05-22T08:07:42.313Z,91.93
2019-05-22T08:08:42.306Z,92.03
2019-05-22T08:09:42.283Z,91.83
2019-05-22T08:10:42.268Z,92.44
2019-05-22T08:11:42.269Z,92.94
2019-05-22T08:12:42.258Z,93.05
2019-05-22T08:13:42.273Z,92.44
2019-05-22T08:14:42.220Z,93.01
2019-05-22T08:15:42.211Z,92.80
2019-05-22T08:16:42.198Z,93.10
2019-05-22T08:17:42.188Z,91.07
2019-05-22T08:18:42.216Z,91.68
2019-05-22T08:19:42.169Z,92.03
2019-05-22T08:20:42.157Z,91.42
2019-05-22T08:21:42.151Z,90.81
2019-05-22T08:22:42.126Z,91.31
2019-05-22T08:23:42.133Z,91.11
2019-05-22T08:24:42.129Z,91.42
2019-05-22T08:25:42.109Z,92.19
2019-05-22T08:26:53.798Z,91.52
2019-05-22T08:27:43.083Z,91.07
2019-05-22T08:28:42.090Z,91.68
2019-05-22T08:29:42.064Z,90.46
2019-05-22T08:30:42.045Z,90.56
2019-05-22T08:31:42.033Z,90.46
2019-05-22T08:32:42.025Z,90.77
2019-05-22T08:33:42.034Z,90.66
2019-05-22T08:34:42.022Z,90.05
2019-05-22T08:35:41.999Z,90.86
2019-05-22T08:36:41.993Z,90.36
2019-05-22T08:37:41.964Z,90.16
2019-05-22T08:38:41.978Z,90.66
2019-05-22T08:39:41.941Z,90.25
2019-05-22T08:40:41.938Z,90.25
2019-05-22T08:41:41.923Z,89.95
2019-05-22T08:42:41.912Z,89.85
2019-05-22T08:44:11.479Z,90.05
2019-05-22T08:44:42.906Z,90.16
2019-05-22T08:45:41.879Z,89.64
2019-05-22T08:46:41.874Z,89.95
2019-05-22T08:47:41.850Z,90.46
2019-05-22T08:48:47.396Z,90.25
2019-05-22T08:49:42.847Z,90.46
2019-05-22T08:50:41.824Z,90.56
2019-05-22T08:51:41.805Z,90.56
2019-05-22T08:52:41.808Z,90.40
2019-05-22T08:53:47.526Z,90.70
2019-05-22T08:54:42.823Z,90.50
2019-05-22T08:55:41.799Z,91.01
2019-05-22T08:56:41.761Z,91.52
2019-05-22T08:57:41.749Z,91.11
2019-05-22T08:58:41.741Z,91.22
2019-05-22T08:59:41.740Z,91.31
2019-05-22T09:00:41.723Z,91.42
2019-05-22T09:01:41.711Z,91.31
2019-05-22T09:02:41.707Z,90.91
2019-05-22T09:03:41.690Z,91.62
2019-05-22T09:04:41.689Z,91.22
2019-05-22T09:05:41.663Z,91.11
2019-05-22T09:06:41.639Z,91.93
2019-05-22T09:07:41.636Z,91.42
2019-05-22T09:08:41.622Z,91.52
2019-05-22T09:09:41.715Z,91.52
2019-05-22T09:10:41.600Z,90.30
2019-05-22T09:11:41.602Z,91.11
2019-05-22T09:12:41.581Z,91.07
2019-05-22T09:13:41.559Z,91.07
2019-05-22T09:14:41.573Z,91.62
2019-05-22T09:15:41.552Z,91.31
2019-05-22T09:16:41.529Z,91.62
2019-05-22T09:17:41.520Z,92.44
2019-05-22T09:18:41.517Z,91.68
2019-05-22T09:19:41.521Z,91.48
2019-05-22T09:20:49.418Z,91.38
2019-05-22T09:21:42.475Z,91.48
2019-05-22T09:22:41.800Z,91.07
2019-05-22T09:23:41.454Z,90.92
2019-05-22T09:24:41.484Z,91.48
2019-05-22T09:25:41.447Z,91.17
2019-05-22T09:26:41.428Z,91.48
2019-05-22T09:27:41.406Z,91.23
2019-05-22T09:28:41.409Z,91.27
2019-05-22T09:29:41.401Z,90.25
2019-05-22T09:30:41.387Z,90.66
2019-05-22T09:31:41.360Z,91.07
2019-05-22T09:32:41.356Z,90.77
2019-05-22T09:33:41.346Z,91.07
2019-05-22T09:34:41.349Z,90.25
2019-05-22T09:35:41.527Z,90.56
2019-05-22T09:36:41.317Z,90.05
2019-05-22T09:37:41.294Z,90.46
2019-05-22T09:38:41.293Z,90.77
2019-05-22T09:39:41.315Z,91.58
2019-05-22T09:40:41.264Z,91.38
2019-05-22T09:41:41.258Z,90.46
2019-05-22T09:42:41.240Z,90.36
2019-05-22T09:43:41.226Z,90.52
2019-05-22T09:44:41.235Z,89.81
2019-05-22T09:45:41.209Z,90.77
2019-05-22T09:46:41.192Z,90.22
2019-05-22T09:47:41.186Z,91.43
2019-05-22T09:48:41.189Z,90.52
2019-05-22T09:49:41.198Z,90.52
2019-05-22T09:50:41.165Z,90.22
2019-05-22T09:51:41.137Z,90.31
2019-05-22T09:52:56.406Z,90.22
2019-05-22T09:53:42.111Z,90.72
2019-05-22T09:54:41.136Z,90.31
2019-05-22T09:55:41.101Z,90.22
2019-05-22T09:56:41.105Z,89.97
2019-05-22T09:57:41.074Z,89.61
2019-05-22T09:58:41.057Z,90.01
2019-05-22T09:59:41.049Z,89.91
2019-05-22T10:00:41.074Z,90.07
2019-05-22T10:01:41.031Z,90.27
2019-05-22T10:02:41.720Z,89.46
2019-05-22T10:03:41.007Z,89.46
2019-05-22T10:04:40.989Z,90.17
2019-05-22T10:05:41.049Z,89.15
2019-05-22T10:06:40.977Z,89.66
2019-05-22T10:07:57.724Z,89.76
2019-05-22T10:08:41.945Z,89.87
2019-05-22T10:09:40.936Z,89.50
2019-05-22T10:10:40.944Z,89.30
2019-05-22T10:11:40.916Z,89.20
2019-05-22T10:12:40.923Z,89.81
2019-05-22T10:13:41.030Z,90.01
2019-05-22T10:14:41.111Z,89.87
2019-05-22T10:15:40.889Z,89.81
2019-05-22T10:16:40.871Z,89.30
2019-05-22T10:17:40.856Z,89.40
2019-05-22T10:18:40.927Z,89.81
2019-05-22T10:19:40.824Z,89.81
2019-05-22T10:20:40.852Z,90.42
2019-05-22T10:21:40.799Z,90.31
2019-05-22T10:22:40.795Z,90.31
2019-05-22T10:23:40.788Z,90.22
2019-05-22T10:24:40.780Z,90.31
2019-05-22T10:25:40.775Z,90.11
2019-05-22T10:26:40.754Z,90.31
2019-05-22T10:27:40.733Z,90.22
2019-05-22T10:28:40.755Z,90.42
2019-05-22T10:29:40.718Z,90.11
2019-05-22T10:30:40.764Z,89.91
2019-05-22T10:31:40.688Z,90.11
2019-05-22T10:32:40.713Z,90.01
2019-05-22T10:33:40.669Z,90.62
2019-05-22T10:34:40.653Z,90.22
2019-05-22T10:35:40.684Z,90.11
2019-05-22T10:36:43.113Z,89.91
2019-05-22T10:37:40.636Z,90.72
2019-05-22T10:38:40.614Z,90.72
2019-05-22T10:39:40.601Z,90.22
2019-05-22T10:40:40.677Z,90.42
2019-05-22T10:41:40.622Z,90.27
2019-05-22T10:42:44.477Z,90.31
2019-05-22T10:43:40.560Z,89.61
2019-05-22T10:44:40.561Z,89.61
2019-05-22T10:45:40.555Z,89.30
2019-05-22T10:46:40.534Z,89.09
2019-05-22T10:47:40.528Z,89.56
2019-05-22T10:48:40.900Z,89.36
2019-05-22T10:49:40.507Z,88.65
2019-05-22T10:50:40.492Z,89.05
2019-05-22T10:51:40.465Z,88.85
2019-05-22T10:52:40.460Z,89.26
2019-05-22T10:53:40.445Z,89.36
2019-05-22T10:54:40.437Z,89.15
2019-05-22T10:55:40.440Z,88.75
2019-05-22T10:56:40.419Z,88.40
2019-05-22T10:57:41.260Z,87.73
2019-05-22T10:58:40.400Z,87.84
2019-05-22T10:59:40.398Z,88.24
2019-05-22T11:00:40.369Z,89.76
2019-05-22T11:01:40.386Z,88.44
2019-05-22T11:02:40.343Z,88.34
2019-05-22T11:03:40.337Z,87.93
2019-05-22T11:04:40.344Z,88.04
2019-05-22T11:05:40.306Z,88.54
2019-05-22T11:06:40.313Z,88.20
2019-05-22T11:07:40.288Z,87.93
2019-05-22T11:08:40.278Z,87.63
2019-05-22T11:09:40.280Z,88.44
2019-05-22T11:10:40.248Z,88.13
2019-05-22T11:11:40.263Z,88.40
2019-05-22T11:12:40.235Z,89.66
2019-05-22T11:13:40.222Z,89.15
2019-05-22T11:14:40.210Z,89.50
2019-05-22T11:15:40.199Z,89.61
2019-05-22T11:16:40.209Z,90.42
2019-05-22T11:17:40.235Z,90.66
2019-05-22T11:18:40.171Z,89.61
2019-05-22T11:19:40.157Z,90.52
2019-05-22T11:20:40.145Z,90.52
2019-05-22T11:21:40.159Z,90.62
2019-05-22T11:22:40.121Z,90.62
2019-05-22T11:23:51.109Z,90.83
2019-05-22T11:24:41.103Z,89.81
2019-05-22T11:25:40.090Z,90.52
2019-05-22T11:26:40.100Z,89.91
2019-05-22T11:27:40.068Z,90.01
2019-05-22T11:28:40.045Z,90.01
2019-05-22T11:29:40.359Z,90.31
2019-05-22T11:30:40.030Z,90.11
2019-05-22T11:31:40.059Z,90.01
2019-05-22T11:32:40.014Z,90.52
2019-05-22T11:33:39.998Z,90.11
2019-05-22T11:34:39.983Z,89.70
2019-05-22T11:35:40.162Z,89.70
2019-05-22T11:36:39.979Z,89.91
2019-05-22T11:37:39.948Z,89.91
2019-05-22T11:38:39.947Z,89.50
2019-05-22T11:39:44.511Z,90.01
2019-05-22T11:40:40.951Z,90.11
2019-05-22T11:41:39.927Z,89.56
2019-05-22T11:42:39.905Z,89.40
2019-05-22T11:43:39.901Z,89.46
2019-05-22T11:44:39.874Z,90.07
2019-05-22T11:45:39.893Z,89.46
2019-05-22T11:46:39.869Z,88.95
2019-05-22T11:47:39.839Z,89.66
2019-05-22T11:48:39.842Z,88.75
2019-05-22T11:49:39.820Z,89.05
2019-05-22T11:50:39.815Z,89.05
2019-05-22T11:51:39.822Z,89.66
2019-05-22T11:52:39.815Z,89.26
2019-05-22T11:53:39.771Z,89.97
2019-05-22T11:54:39.816Z,89.36
2019-05-22T11:55:45.076Z,89.36
2019-05-22T11:56:40.762Z,90.07
2019-05-22T11:57:39.737Z,89.76
2019-05-22T11:58:39.725Z,89.36
2019-05-22T11:59:39.829Z,89.66
2019-05-22T12:00:39.702Z,89.05
2019-05-22T12:01:39.723Z,89.46
2019-05-22T12:02:39.671Z,88.65
2019-05-22T12:03:39.665Z,89.05
2019-05-22T12:04:48.060Z,89.56
2019-05-22T12:05:40.672Z,89.50
2019-05-22T12:06:39.737Z,89.61
2019-05-22T12:07:39.632Z,88.79
2019-05-22T12:08:39.621Z,89.70
2019-05-22T12:09:39.599Z,89.81
2019-05-22T12:10:39.582Z,89.81
2019-05-22T12:11:42.909Z,89.81
2019-05-22T12:12:39.634Z,89.40
2019-05-22T12:13:39.581Z,89.40
2019-05-22T12:14:39.546Z,89.30
2019-05-22T12:15:39.579Z,90.22
2019-05-22T12:16:39.536Z,89.50
2019-05-22T12:17:39.530Z,89.91
2019-05-22T12:18:39.499Z,89.40
2019-05-22T12:19:39.492Z,89.81
2019-05-22T12:20:39.483Z,89.50
2019-05-22T12:21:39.457Z,89.76
2019-05-22T12:22:39.482Z,89.66
2019-05-22T12:23:39.446Z,89.76
2019-05-22T12:24:39.433Z,88.54
2019-05-22T12:25:39.434Z,88.54
2019-05-22T12:26:39.430Z,88.69
2019-05-22T12:27:39.454Z,89.50
2019-05-22T12:28:39.411Z,89.40
2019-05-22T12:29:39.372Z,89.95
2019-05-22T12:30:39.367Z,90.11
2019-05-22T12:31:39.405Z,90.01
2019-05-22T12:32:39.407Z,90.52
2019-05-22T12:33:39.332Z,90.16
2019-05-22T12:34:39.350Z,90.31
2019-05-22T12:35:39.310Z,90.31
2019-05-22T12:36:39.309Z,90.05
2019-05-22T12:37:39.313Z,90.46
2019-05-22T12:38:39.274Z,90.56
2019-05-22T12:39:39.261Z,90.56
2019-05-22T12:40:39.244Z,90.56
2019-05-22T12:41:39.249Z,90.66
2019-05-22T12:42:39.355Z,91.07
2019-05-22T12:43:39.215Z,90.46
2019-05-22T12:44:39.217Z,90.56
2019-05-22T12:45:39.201Z,90.97
2019-05-22T12:46:39.217Z,91.68
2019-05-22T12:47:39.198Z,90.46
2019-05-22T12:48:39.156Z,90.56
2019-05-22T12:49:40.092Z,90.86
2019-05-22T12:50:39.139Z,90.86
2019-05-22T12:51:39.124Z,91.48
2019-05-22T12:52:39.145Z,90.86